Latest Weather Observations for Nambour
Issued at 9:13 pm EST Saturday 9 May 2026 (issued every 10 minutes, with the page automatically refreshed every 10 minutes)
| Station Details | ID: 040988 | Name: NAMBOUR DAFF - HILLSIDE | Lat: -26.64 | Lon: 152.94 | Height: 53.24 m |
| Date/Time EST |
Temp °C |
App Temp °C |
Dew Point °C |
Rel Hum % |
Delta-T °C |
Wind | Press QNH hPa |
Press MSL hPa |
Rain since 9am mm |
|||||
|---|---|---|---|---|---|---|---|---|---|---|---|---|---|---|
| Dir | Spd km/h |
Gust km/h |
Spd kts |
Gust kts |
||||||||||
| 09/09:00pm | 14.2 | 15.2 | 13.1 | 93 | 0.6 | CALM | 0 | 0 | 0 | 0 | 1024.5 | 1024.4 | 0.0 | |
| 09/08:30pm | 14.5 | 15.4 | 13.0 | 91 | 0.8 | CALM | 0 | 0 | 0 | 0 | 1024.5 | 1024.4 | 0.0 | |
| 09/08:00pm | 14.8 | 15.7 | 12.8 | 88 | 1.1 | CALM | 0 | 0 | 0 | 0 | 1024.4 | 1024.3 | 0.0 | |
| 09/07:30pm | 15.0 | 15.9 | 12.9 | 87 | 1.2 | CALM | 0 | 0 | 0 | 0 | 1024.1 | 1024.0 | 0.0 | |
| 09/07:00pm | - | - | - | - | - | CALM | 0 | 0 | 0 | 0 | 1023.7 | 1023.6 | 0.0 | |
| 09/06:30pm | - | - | - | - | - | CALM | 0 | 0 | 0 | 0 | 1023.5 | 1023.4 | 0.0 | |
| 09/06:00pm | - | - | - | - | - | CALM | 0 | 0 | 0 | 0 | 1023.2 | 1023.1 | 0.0 | |
| 09/05:30pm | - | - | - | - | - | CALM | 0 | 2 | 0 | 1 | 1022.9 | 1022.8 | 0.0 | |
| 09/05:00pm | - | - | - | - | - | SSE | 2 | 6 | 1 | 3 | 1022.6 | 1022.5 | 0.0 | |
| 09/04:30pm | - | - | - | - | - | ESE | 4 | 7 | 2 | 4 | 1022.2 | 1022.1 | 0.0 | |
| 09/04:00pm | - | - | - | - | - | SE | 4 | 7 | 2 | 4 | 1021.9 | 1021.8 | 0.0 | |
| 09/03:30pm | - | - | - | - | - | ESE | 4 | 7 | 2 | 4 | 1021.7 | 1021.6 | 0.0 | |
| 09/03:00pm | - | - | - | - | - | E | 7 | 13 | 4 | 7 | 1021.6 | 1021.5 | 0.0 | |
| 09/02:30pm | 22.9 | 23.7 | 13.7 | 56 | 5.4 | ENE | 2 | 6 | 1 | 3 | 1021.4 | 1021.3 | 0.0 | |
| 09/02:00pm | 22.9 | 22.0 | 12.5 | 52 | 5.9 | ESE | 9 | 17 | 5 | 9 | 1021.4 | 1021.3 | 0.0 | |
| 09/01:30pm | 22.1 | 22.3 | 12.9 | 56 | 5.3 | SE | 4 | 9 | 2 | 5 | 1021.5 | 1021.4 | 0.0 | |
| 09/01:00pm | 23.9 | 23.8 | 13.4 | 51 | 6.1 | E | 6 | 11 | 3 | 6 | 1021.6 | 1021.5 | 0.0 | |
| 09/12:30pm | 22.8 | 22.2 | 12.4 | 52 | 5.9 | ESE | 7 | 17 | 4 | 9 | 1021.9 | 1021.8 | 0.0 | |
| 09/12:00pm | 23.7 | 23.6 | 13.8 | 53 | 5.8 | E | 7 | 19 | 4 | 10 | 1022.3 | 1022.2 | 0.0 | |
| 09/11:30am | 23.1 | 22.6 | 12.7 | 52 | 6.0 | E | 7 | 17 | 4 | 9 | 1022.6 | 1022.5 | 0.0 | |
| 09/11:00am | 22.9 | 22.6 | 13.4 | 55 | 5.5 | SE | 7 | 15 | 4 | 8 | 1022.7 | 1022.6 | 0.0 | |
| 09/10:30am | 22.4 | 22.3 | 13.2 | 56 | 5.3 | SE | 6 | 11 | 3 | 6 | 1023.0 | 1022.9 | 0.0 | |
| 09/10:00am | 22.5 | 22.9 | 13.8 | 58 | 5.1 | ESE | 4 | 7 | 2 | 4 | 1023.2 | 1023.1 | 0.0 | |
| 09/09:30am | 21.4 | 21.6 | 13.1 | 59 | 4.8 | SE | 4 | 7 | 2 | 4 | 1023.0 | 1022.9 | 0.0 | |
| 09/09:00am | 20.1 | 21.4 | 14.0 | 68 | 3.5 | CALM | 0 | 2 | 0 | 1 | 1023.0 | 1022.9 | 0.0 | |
| 09/08:30am | - | - | - | - | - | CALM | 0 | 0 | 0 | 0 | 1022.7 | 1022.6 | 0.0 | |
| 09/08:00am | - | - | - | - | - | CALM | 0 | 0 | 0 | 0 | 1022.5 | 1022.4 | 0.0 | |
| 09/07:30am | - | - | - | - | - | CALM | 0 | 0 | 0 | 0 | 1022.1 | 1022.0 | 0.0 | |
| 09/07:00am | - | - | - | - | - | CALM | 0 | 0 | 0 | 0 | 1021.6 | 1021.5 | 0.0 | |
| 09/06:30am | - | - | - | - | - | CALM | 0 | 0 | 0 | 0 | 1021.3 | 1021.2 | 0.0 | |
| 09/06:00am | - | - | - | - | - | CALM | 0 | 0 | 0 | 0 | 1020.8 | 1020.7 | 0.0 | |
| 09/05:30am | - | - | - | - | - | CALM | 0 | 0 | 0 | 0 | 1020.7 | 1020.6 | 0.0 | |
| 09/05:00am | - | - | - | - | - | CALM | 0 | 0 | 0 | 0 | 1020.6 | 1020.5 | 0.0 | |
| 09/04:30am | - | - | - | - | - | CALM | 0 | 0 | 0 | 0 | 1020.3 | 1020.2 | 0.0 | |
| 09/04:00am | - | - | - | - | - | CALM | 0 | 0 | 0 | 0 | 1020.1 | 1020.0 | 0.0 | |
| 09/03:30am | - | - | - | - | - | CALM | 0 | 0 | 0 | 0 | 1019.8 | 1019.7 | 0.0 | |
| 09/03:00am | - | - | - | - | - | CALM | 0 | 0 | 0 | 0 | 1019.7 | 1019.6 | 0.0 | |
| 09/02:30am | - | - | - | - | - | CALM | 0 | 0 | 0 | 0 | 1019.7 | 1019.6 | 0.0 | |
| 09/02:00am | 9.4 | 8.8 | 7.2 | 86 | 1.0 | CALM | 0 | 0 | 0 | 0 | 1019.8 | 1019.7 | 0.0 | |
| 09/01:30am | 10.5 | 9.9 | 7.6 | 82 | 1.4 | CALM | 0 | 2 | 0 | 1 | 1019.9 | 1019.8 | 0.0 | |
| 09/01:00am | 10.1 | 9.5 | 7.2 | 82 | 1.4 | CALM | 0 | 0 | 0 | 0 | 1020.0 | 1019.9 | 0.0 | |
| 09/12:30am | 9.6 | 9.0 | 7.5 | 87 | 1.0 | CALM | 0 | 0 | 0 | 0 | 1020.0 | 1019.9 | 0.0 | |
| 09/12:00am | 11.0 | 10.2 | 6.7 | 75 | 2.0 | CALM | 0 | 0 | 0 | 0 | 1019.9 | 1019.8 | 0.0 | |
| Date/Time EST |
Temp °C |
App Temp °C |
Dew Point °C |
Rel Hum % |
Delta-T °C |
Wind | Press QNH hPa |
Press MSL hPa |
Rain since 9am mm |
|||||
|---|---|---|---|---|---|---|---|---|---|---|---|---|---|---|
| Dir | Spd km/h |
Gust km/h |
Spd kts |
Gust kts |
||||||||||
| 08/11:30pm | 11.6 | 10.8 | 6.7 | 72 | 2.3 | CALM | 0 | 0 | 0 | 0 | 1019.7 | 1019.6 | 0.0 | |
| 08/11:00pm | 10.7 | 10.2 | 7.8 | 82 | 1.4 | CALM | 0 | 2 | 0 | 1 | 1020.0 | 1019.9 | 0.0 | |
| 08/10:30pm | 11.3 | 10.7 | 7.2 | 76 | 2.0 | CALM | 0 | 2 | 0 | 1 | 1020.2 | 1020.1 | 0.0 | |
| 08/10:00pm | 11.0 | 10.6 | 8.2 | 83 | 1.4 | CALM | 0 | 0 | 0 | 0 | 1020.2 | 1020.1 | 0.0 | |
| 08/09:30pm | 11.0 | 10.7 | 8.6 | 85 | 1.2 | CALM | 0 | 0 | 0 | 0 | 1020.3 | 1020.2 | 0.0 | |
| 08/09:00pm | 11.8 | 11.5 | 8.8 | 82 | 1.5 | CALM | 0 | 2 | 0 | 1 | 1020.1 | 1020.0 | 0.0 | |
| 08/08:30pm | 12.3 | 12.1 | 9.1 | 81 | 1.6 | CALM | 0 | 0 | 0 | 0 | 1020.1 | 1020.0 | 0.0 | |
| 08/08:00pm | 12.7 | 12.5 | 9.2 | 79 | 1.8 | CALM | 0 | 0 | 0 | 0 | 1019.7 | 1019.6 | 0.0 | |
| 08/07:30pm | 13.3 | 13.1 | 9.0 | 75 | 2.2 | CALM | 0 | 0 | 0 | 0 | 1019.5 | 1019.4 | 0.0 | |
| 08/07:00pm | 13.3 | 13.4 | 10.1 | 81 | 1.7 | CALM | 0 | 0 | 0 | 0 | 1019.2 | 1019.1 | 0.0 | |
| 08/06:30pm | 13.4 | 13.7 | 10.8 | 84 | 1.4 | CALM | 0 | 0 | 0 | 0 | 1019.0 | 1018.9 | 0.0 | |
| 08/06:00pm | 14.2 | 14.4 | 10.4 | 78 | 2.0 | CALM | 0 | 0 | 0 | 0 | 1018.7 | 1018.6 | 0.0 | |
| 08/05:30pm | 15.4 | 15.0 | 9.7 | 69 | 3.0 | WSW | 2 | 4 | 1 | 2 | 1018.5 | 1018.4 | 0.0 | |
| 08/05:00pm | 17.4 | 16.7 | 8.5 | 56 | 4.6 | WNW | 2 | 4 | 1 | 2 | 1018.1 | 1018.0 | 0.0 | |
| 08/04:30pm | 19.1 | 18.3 | 8.1 | 49 | 5.7 | E | 2 | 6 | 1 | 3 | 1017.8 | 1017.7 | 0.0 | |
| 08/04:00pm | 21.2 | 20.1 | 6.7 | 39 | 7.4 | SSE | 2 | 4 | 1 | 2 | 1017.6 | 1017.5 | 0.0 | |
| 08/03:30pm | 21.2 | 19.6 | 6.3 | 38 | 7.5 | ESE | 4 | 6 | 2 | 3 | 1017.6 | 1017.5 | 0.0 | |
| 08/03:00pm | 21.1 | 18.9 | 5.1 | 35 | 7.9 | ENE | 6 | 9 | 3 | 5 | 1017.6 | 1017.5 | 0.0 | |
| 08/02:30pm | 21.6 | 19.6 | 4.2 | 32 | 8.5 | ESE | 4 | 9 | 2 | 5 | 1017.4 | 1017.3 | 0.0 | |
| 08/02:00pm | 21.9 | 20.1 | 5.3 | 34 | 8.3 | NE | 4 | 7 | 2 | 4 | 1017.9 | 1017.8 | 0.0 | |
| 08/01:30pm | 21.2 | 18.9 | 2.5 | 29 | 8.8 | E | 4 | 9 | 2 | 5 | 1018.1 | 1018.0 | 0.0 | |
| 08/01:00pm | 21.7 | 20.1 | 4.7 | 33 | 8.3 | S | 2 | 9 | 1 | 5 | 1018.5 | 1018.4 | 0.0 | |
| 08/12:30pm | 21.0 | 18.8 | 3.2 | 31 | 8.5 | ESE | 4 | 7 | 2 | 4 | 1018.9 | 1018.8 | 0.0 | |
| 08/12:00pm | 21.0 | 18.9 | 3.7 | 32 | 8.3 | E | 4 | 6 | 2 | 3 | 1019.4 | 1019.3 | 0.0 | |
| 08/11:30am | 19.9 | 17.4 | 1.4 | 29 | 8.4 | SE | 4 | 11 | 2 | 6 | 1019.9 | 1019.8 | 0.0 | |
| 08/11:00am | 20.2 | 17.4 | 2.1 | 30 | 8.3 | WSW | 6 | 11 | 3 | 6 | 1020.4 | 1020.3 | 0.0 | |
| 08/10:30am | 20.0 | 17.7 | 2.8 | 32 | 8.1 | WSW | 4 | 7 | 2 | 4 | 1020.9 | 1020.8 | 0.0 | |
| 08/10:00am | 19.9 | 17.7 | 3.6 | 34 | 7.7 | E | 4 | 9 | 2 | 5 | 1021.0 | 1020.9 | 0.0 | |
| 08/09:30am | 18.8 | 16.0 | 2.2 | 33 | 7.6 | SSE | 6 | 13 | 3 | 7 | 1021.0 | 1020.9 | 0.0 | |
| 08/09:00am | 19.0 | 16.8 | 3.6 | 36 | 7.2 | SSE | 4 | 7 | 2 | 4 | 1020.9 | 1020.8 | 0.0 | |
| 08/08:30am | 17.5 | 15.1 | 1.9 | 35 | 7.0 | SW | 4 | 9 | 2 | 5 | 1020.8 | 1020.7 | 0.0 | |
| 08/08:00am | 16.3 | 14.0 | 2.7 | 40 | 6.1 | SSW | 4 | 7 | 2 | 4 | 1020.7 | 1020.6 | 0.0 | |
| 08/07:30am | 15.1 | 12.7 | 2.3 | 42 | 5.7 | SW | 4 | 9 | 2 | 5 | 1020.5 | 1020.4 | 0.0 | |
| 08/07:00am | 13.7 | 12.5 | 6.3 | 61 | 3.5 | WSW | 2 | 7 | 1 | 4 | 1020.1 | 1020.0 | 0.0 | |
| 08/06:30am | 12.6 | 10.3 | 2.7 | 51 | 4.3 | SW | 4 | 9 | 2 | 5 | 1019.5 | 1019.4 | 0.0 | |
| 08/06:00am | 12.6 | 10.1 | 1.3 | 46 | 4.8 | SW | 4 | 9 | 2 | 5 | 1019.2 | 1019.1 | 0.0 | |
| 08/05:30am | 13.1 | 10.0 | 1.1 | 44 | 5.1 | SW | 7 | 17 | 4 | 9 | 1019.0 | 1018.9 | 0.0 | |
| 08/05:00am | 12.5 | 9.7 | 2.1 | 49 | 4.5 | SSW | 6 | 11 | 3 | 6 | 1018.5 | 1018.4 | 0.0 | |
| 08/04:30am | 13.3 | 10.6 | 2.5 | 48 | 4.8 | S | 6 | 11 | 3 | 6 | 1018.2 | 1018.1 | 0.0 | |
| 08/04:00am | 13.6 | 10.9 | 2.5 | 47 | 4.9 | SSW | 6 | 15 | 3 | 8 | 1017.7 | 1017.6 | 0.0 | |
| 08/03:30am | 13.9 | 11.6 | 2.5 | 46 | 5.0 | SW | 4 | 11 | 2 | 6 | 1017.7 | 1017.6 | 0.0 | |
| 08/03:00am | 14.5 | 10.9 | 2.7 | 45 | 5.3 | SW | 11 | 30 | 6 | 16 | 1017.4 | 1017.3 | 0.0 | |
| 08/02:30am | 14.9 | 12.3 | 3.4 | 46 | 5.2 | SW | 6 | 15 | 3 | 8 | 1017.9 | 1017.8 | 0.0 | |
| 08/02:00am | 15.1 | 13.4 | 4.2 | 48 | 5.0 | SSE | 2 | 6 | 1 | 3 | 1017.9 | 1017.8 | 0.0 | |
| 08/01:30am | 16.0 | 13.5 | 4.7 | 47 | 5.3 | WSW | 7 | 24 | 4 | 13 | 1017.9 | 1017.8 | 0.0 | |
| 08/01:00am | 16.2 | 14.4 | 5.5 | 49 | 5.1 | WSW | 4 | 9 | 2 | 5 | 1018.0 | 1017.9 | 0.0 | |
| 08/12:30am | 16.8 | 14.6 | 5.4 | 47 | 5.5 | E | 6 | 15 | 3 | 8 | 1018.2 | 1018.1 | 0.0 | |
| 08/12:00am | 17.3 | 15.6 | 5.9 | 47 | 5.6 | WSW | 4 | 9 | 2 | 5 | 1017.9 | 1017.8 | 0.0 | |
| Date/Time EST |
Temp °C |
App Temp °C |
Dew Point °C |
Rel Hum % |
Delta-T °C |
Wind | Press QNH hPa |
Press MSL hPa |
Rain since 9am mm |
|||||
|---|---|---|---|---|---|---|---|---|---|---|---|---|---|---|
| Dir | Spd km/h |
Gust km/h |
Spd kts |
Gust kts |
||||||||||
| 07/11:30pm | 17.9 | 15.6 | 5.8 | 45 | 5.9 | SW | 7 | 20 | 4 | 11 | 1018.0 | 1017.9 | 0.0 | |
| 07/11:00pm | 17.7 | 15.9 | 5.6 | 45 | 5.9 | WSW | 4 | 9 | 2 | 5 | 1017.8 | 1017.7 | 0.0 | |
| 07/10:30pm | 17.7 | 16.5 | 6.3 | 47 | 5.6 | SE | 2 | 6 | 1 | 3 | 1017.7 | 1017.6 | 0.0 | |
| 07/10:00pm | 19.1 | 16.7 | 5.2 | 40 | 6.8 | WSW | 7 | 15 | 4 | 8 | 1017.7 | 1017.6 | 0.0 | |
| 07/09:30pm | 19.1 | 17.1 | 6.2 | 43 | 6.4 | WSW | 6 | 9 | 3 | 5 | 1017.6 | 1017.5 | 0.0 | |
| 07/09:00pm | 18.7 | 17.0 | 7.5 | 48 | 5.7 | WSW | 6 | 9 | 3 | 5 | 1017.5 | 1017.4 | 0.0 | |
| 07/08:30pm | 19.1 | 18.2 | 7.8 | 48 | 5.8 | SW | 2 | 6 | 1 | 3 | 1017.2 | 1017.1 | 0.0 | |
| 07/08:00pm | 20.0 | 18.7 | 7.7 | 45 | 6.3 | WSW | 4 | 13 | 2 | 7 | 1017.0 | 1016.9 | 0.0 | |
| 07/07:30pm | 19.8 | 18.9 | 9.1 | 50 | 5.7 | SSW | 4 | 9 | 2 | 5 | 1016.8 | 1016.7 | 0.0 | |
| 07/07:00pm | 20.0 | 19.5 | 9.3 | 50 | 5.7 | SSW | 2 | 6 | 1 | 3 | 1016.4 | 1016.3 | 0.0 | |
| 07/06:30pm | 20.3 | 20.3 | 11.2 | 56 | 5.0 | WSW | 2 | 7 | 1 | 4 | 1016.0 | 1015.9 | 0.0 | |
| 07/06:00pm | 21.0 | 20.3 | 10.2 | 50 | 5.9 | WSW | 4 | 7 | 2 | 4 | 1015.7 | 1015.6 | 0.0 | |
| 07/05:30pm | 22.0 | 21.2 | 11.1 | 50 | 6.0 | WSW | 6 | 13 | 3 | 7 | 1015.5 | 1015.4 | 0.0 | |
| 07/05:00pm | 22.4 | 22.6 | 12.9 | 55 | 5.4 | WSW | 4 | 13 | 2 | 7 | 1015.1 | 1015.0 | 0.0 | |
| 07/04:30pm | 23.0 | 23.5 | 14.0 | 57 | 5.3 | SSW | 4 | 7 | 2 | 4 | 1014.6 | 1014.5 | 0.0 | |
| 07/04:00pm | 23.6 | 24.7 | 15.6 | 61 | 4.8 | WSW | 4 | 7 | 2 | 4 | 1014.4 | 1014.3 | 0.0 | |
| 07/03:30pm | 24.6 | 25.2 | 15.2 | 55 | 5.7 | WSW | 6 | 9 | 3 | 5 | 1014.4 | 1014.3 | 0.0 | |
| 07/03:00pm | 24.8 | 26.1 | 17.0 | 62 | 4.8 | WSW | 6 | 11 | 3 | 6 | 1014.4 | 1014.3 | 0.0 | |
| 07/02:30pm | 25.7 | 27.3 | 17.9 | 62 | 4.9 | WSW | 6 | 11 | 3 | 6 | 1014.3 | 1014.2 | 0.0 | |
| 07/02:00pm | 26.0 | 28.0 | 17.9 | 61 | 5.1 | WSW | 4 | 6 | 2 | 3 | 1014.0 | 1013.9 | 0.0 | |
| 07/01:30pm | 26.1 | 27.8 | 17.2 | 58 | 5.6 | NNW | 4 | 9 | 2 | 5 | 1014.3 | 1014.2 | 0.0 | |
| 07/01:00pm | 26.7 | 28.5 | 18.3 | 60 | 5.3 | NW | 6 | 9 | 3 | 5 | 1014.5 | 1014.4 | 0.0 | |
| 07/12:30pm | 26.3 | 28.1 | 18.2 | 61 | 5.1 | NW | 6 | 9 | 3 | 5 | 1014.8 | 1014.7 | 0.0 | |
| 07/12:00pm | 25.3 | 27.0 | 18.5 | 66 | 4.3 | WSW | 7 | 15 | 4 | 8 | 1015.1 | 1015.0 | 0.0 | |
| 07/11:30am | 25.4 | 27.2 | 18.3 | 64 | 4.5 | SW | 6 | 7 | 3 | 4 | 1015.6 | 1015.5 | 0.0 | |
| 07/11:00am | 25.7 | 28.3 | 19.3 | 67 | 4.1 | SSE | 4 | 9 | 2 | 5 | 1016.0 | 1015.9 | 0.0 | |
| 07/10:30am | 25.8 | 28.5 | 19.4 | 67 | 4.1 | NE | 4 | 7 | 2 | 4 | 1016.2 | 1016.1 | 0.0 | |
| 07/10:00am | 25.1 | 27.5 | 19.7 | 72 | 3.5 | ENE | 6 | 11 | 3 | 6 | 1016.8 | 1016.7 | 0.0 | |
| 07/09:30am | 24.9 | 27.9 | 19.3 | 71 | 3.6 | S | 2 | 6 | 1 | 3 | 1017.3 | 1017.2 | 0.0 | |
| 07/09:00am | 24.2 | 27.5 | 19.9 | 77 | 2.8 | NE | 2 | 6 | 1 | 3 | 1017.2 | 1017.1 | 0.0 | |
| 07/08:30am | 22.6 | 26.1 | 19.6 | 83 | 1.9 | CALM | 0 | 0 | 0 | 0 | 1017.0 | 1016.9 | 0.0 | |
| 07/08:00am | 21.1 | 24.6 | 19.6 | 91 | 1.0 | CALM | 0 | 2 | 0 | 1 | 1016.8 | 1016.7 | 0.0 | |
| 07/07:30am | 19.4 | 22.7 | 19.1 | 98 | 0.2 | CALM | 0 | 0 | 0 | 0 | 1016.7 | 1016.6 | 0.0 | |
| 07/07:00am | 18.3 | 21.1 | 18.0 | 98 | 0.2 | CALM | 0 | 0 | 0 | 0 | 1016.5 | 1016.4 | 0.0 | |
| 07/06:30am | 18.2 | 21.0 | 17.9 | 98 | 0.2 | CALM | 0 | 0 | 0 | 0 | 1016.4 | 1016.3 | 0.0 | |
| 07/06:00am | 18.3 | 21.0 | 17.8 | 97 | 0.3 | CALM | 0 | 0 | 0 | 0 | 1016.1 | 1016.0 | 0.0 | |
| 07/05:30am | 18.3 | 21.0 | 17.8 | 97 | 0.3 | CALM | 0 | 0 | 0 | 0 | 1015.6 | 1015.5 | 0.0 | |
| 07/05:00am | 18.5 | 21.3 | 18.0 | 97 | 0.3 | CALM | 0 | 0 | 0 | 0 | 1015.4 | 1015.3 | 0.0 | |
| 07/04:30am | 18.8 | 21.7 | 18.3 | 97 | 0.3 | CALM | 0 | 0 | 0 | 0 | 1015.5 | 1015.4 | 0.0 | |
| 07/04:00am | 18.9 | 21.8 | 18.2 | 96 | 0.4 | CALM | 0 | 2 | 0 | 1 | 1015.5 | 1015.4 | 0.0 | |
| 07/03:30am | 19.0 | 21.9 | 18.3 | 96 | 0.4 | CALM | 0 | 0 | 0 | 0 | 1015.6 | 1015.5 | 0.0 | |
| 07/03:00am | 19.1 | 22.1 | 18.4 | 96 | 0.4 | CALM | 0 | 0 | 0 | 0 | 1015.9 | 1015.8 | 0.0 | |
| 07/02:30am | 19.2 | 22.2 | 18.5 | 96 | 0.4 | CALM | 0 | 0 | 0 | 0 | 1016.2 | 1016.1 | 0.0 | |
| 07/02:00am | 19.3 | 22.4 | 18.6 | 96 | 0.4 | CALM | 0 | 0 | 0 | 0 | 1016.2 | 1016.1 | 0.0 | |
| 07/01:30am | 19.4 | 22.5 | 18.6 | 95 | 0.5 | CALM | 0 | 0 | 0 | 0 | 1016.4 | 1016.3 | 0.0 | |
| 07/01:00am | 19.5 | 22.6 | 18.7 | 95 | 0.5 | CALM | 0 | 0 | 0 | 0 | 1016.6 | 1016.5 | 0.0 | |
| 07/12:30am | 19.6 | 22.7 | 18.6 | 94 | 0.6 | CALM | 0 | 0 | 0 | 0 | 1016.9 | 1016.8 | 0.0 | |
| 07/12:00am | 19.7 | 22.8 | 18.7 | 94 | 0.6 | CALM | 0 | 0 | 0 | 0 | 1017.0 | 1016.9 | 0.0 | |
| Date/Time EST |
Temp °C |
App Temp °C |
Dew Point °C |
Rel Hum % |
Delta-T °C |
Wind | Press QNH hPa |
Press MSL hPa |
Rain since 9am mm |
||||
|---|---|---|---|---|---|---|---|---|---|---|---|---|---|
| Dir | Spd km/h |
Gust km/h |
Spd kts |
Gust kts |
|||||||||
| 06/11:30pm | 19.7 | 22.8 | 18.7 | 94 | 0.6 | CALM | 0 | 0 | 0 | 0 | 1016.9 | 1016.8 | 0.0 |
| 06/11:00pm | 19.9 | 23.1 | 18.9 | 94 | 0.6 | CALM | 0 | 0 | 0 | 0 | 1017.3 | 1017.2 | 0.0 |
| 06/10:30pm | 19.8 | 23.0 | 18.8 | 94 | 0.6 | CALM | 0 | 0 | 0 | 0 | 1017.3 | 1017.2 | 0.0 |
| 06/10:00pm | 19.9 | 23.0 | 18.7 | 93 | 0.7 | CALM | 0 | 0 | 0 | 0 | 1017.5 | 1017.4 | 0.0 |
| 06/09:30pm | 20.2 | 23.4 | 18.9 | 92 | 0.8 | CALM | 0 | 0 | 0 | 0 | 1017.7 | 1017.6 | 0.0 |
Other formats
Comma delimited format used in spreadsheet applications
http://www.bom.gov.au/fwo/IDQ60801/IDQ60801.95572.axf
JavaScript Object Notation format (JSON) in row-major order
http://www.bom.gov.au/fwo/IDQ60801/IDQ60801.95572.json
Data quality
Most of these data are generated automatically and are frequently updated. Quality checks on data are not normally performed. It is possible for incorrect values to appear. Refer to information at About Latest Weather Observations and please check the disclaimer before using these data.
